sensor_id;sensor_type;location;lat;lon;timestamp;pressure;altitude;pressure_sealevel;temperature;humidity
22047;BME280;11187;49.412;20.956;2022-07-15T00:02:27;95008.31;;;17.74;99.14
22047;BME280;11187;49.412;20.956;2022-07-15T00:05:21;94952.06;;;17.59;100.00
22047;BME280;11187;49.412;20.956;2022-07-15T00:08:15;94966.47;;;17.47;100.00
22047;BME280;11187;49.412;20.956;2022-07-15T00:10:48;94909.09;;;17.37;100.00
22047;BME280;11187;49.412;20.956;2022-07-15T00:13:42;94888.72;;;17.31;100.00
22047;BME280;11187;49.412;20.956;2022-07-15T00:16:15;94895.16;;;17.22;100.00
22047;BME280;11187;49.412;20.956;2022-07-15T00:19:02;94937.69;;;17.17;100.00
22047;BME280;11187;49.412;20.956;2022-07-15T00:21:35;94967.28;;;17.11;100.00
22047;BME280;11187;49.412;20.956;2022-07-15T00:24:29;94963.16;;;17.07;100.00
22047;BME280;11187;49.412;20.956;2022-07-15T00:27:02;94954.63;;;17.05;100.00
22047;BME280;11187;49.412;20.956;2022-07-15T00:29:49;94936.66;;;17.02;100.00
22047;BME280;11187;49.412;20.956;2022-07-15T00:32:23;94938.47;;;17.00;100.00
22047;BME280;11187;49.412;20.956;2022-07-15T00:35:10;94911.16;;;16.94;100.00
22047;BME280;11187;49.412;20.956;2022-07-15T00:37:43;94899.28;;;16.90;100.00
22047;BME280;11187;49.412;20.956;2022-07-15T00:40:30;94901.09;;;16.88;100.00
22047;BME280;11187;49.412;20.956;2022-07-15T00:43:03;94900.31;;;16.86;100.00
22047;BME280;11187;49.412;20.956;2022-07-15T00:45:57;94906.28;;;16.88;100.00
22047;BME280;11187;49.412;20.956;2022-07-15T00:48:31;94899.34;;;16.88;100.00
22047;BME280;11187;49.412;20.956;2022-07-15T00:51:18;94896.97;;;16.84;100.00
22047;BME280;11187;49.412;20.956;2022-07-15T00:53:53;94898.84;;;16.80;100.00
22047;BME280;11187;49.412;20.956;2022-07-15T00:56:46;94907.66;;;16.76;100.00
22047;BME280;11187;49.412;20.956;2022-07-15T00:59:22;94900.84;;;16.74;100.00
22047;BME280;11187;49.412;20.956;2022-07-15T01:02:09;94891.50;;;16.71;100.00
22047;BME280;11187;49.412;20.956;2022-07-15T01:04:44;94888.00;;;16.72;100.00
22047;BME280;11187;49.412;20.956;2022-07-15T01:07:38;94876.84;;;16.72;100.00
22047;BME280;11187;49.412;20.956;2022-07-15T01:10:12;94846.78;;;16.69;100.00
22047;BME280;11187;49.412;20.956;2022-07-15T01:12:59;94856.50;;;16.64;100.00
22047;BME280;11187;49.412;20.956;2022-07-15T01:15:35;94861.88;;;16.59;100.00
22047;BME280;11187;49.412;20.956;2022-07-15T01:18:29;94860.13;;;16.60;100.00
22047;BME280;11187;49.412;20.956;2022-07-15T01:21:02;94861.00;;;16.60;100.00
22047;BME280;11187;49.412;20.956;2022-07-15T01:23:56;94869.69;;;16.58;100.00
22047;BME280;11187;49.412;20.956;2022-07-15T01:26:29;94868.19;;;16.54;100.00
22047;BME280;11187;49.412;20.956;2022-07-15T01:29:23;94851.06;;;16.51;100.00
22047;BME280;11187;49.412;20.956;2022-07-15T01:31:56;94855.59;;;16.46;100.00
22047;BME280;11187;49.412;20.956;2022-07-15T01:34:50;94848.06;;;16.41;100.00
22047;BME280;11187;49.412;20.956;2022-07-15T01:37:44;94842.09;;;16.39;100.00
22047;BME280;11187;49.412;20.956;2022-07-15T01:40:17;94836.88;;;16.41;100.00
22047;BME280;11187;49.412;20.956;2022-07-15T01:43:04;94834.34;;;16.39;100.00
22047;BME280;11187;49.412;20.956;2022-07-15T01:45:41;94836.25;;;16.36;100.00
22047;BME280;11187;49.412;20.956;2022-07-15T01:48:35;94837.25;;;16.33;100.00
22047;BME280;11187;49.412;20.956;2022-07-15T01:51:52;94835.69;;;16.29;100.00
22047;BME280;11187;49.412;20.956;2022-07-15T01:54:46;94828.94;;;16.26;100.00
22047;BME280;11187;49.412;20.956;2022-07-15T01:57:40;94848.00;;;16.24;100.00
22047;BME280;11187;49.412;20.956;2022-07-15T02:00:34;94846.34;;;16.21;100.00
22047;BME280;11187;49.412;20.956;2022-07-15T02:03:07;94852.44;;;16.20;100.00
22047;BME280;11187;49.412;20.956;2022-07-15T02:06:01;94833.53;;;16.20;100.00
22047;BME280;11187;49.412;20.956;2022-07-15T02:08:55;94807.75;;;16.18;100.00
22047;BME280;11187;49.412;20.956;2022-07-15T02:11:30;94825.00;;;16.18;100.00
22047;BME280;11187;49.412;20.956;2022-07-15T02:14:24;94827.66;;;16.16;100.00
22047;BME280;11187;49.412;20.956;2022-07-15T02:16:57;94836.38;;;16.14;100.00
22047;BME280;11187;49.412;20.956;2022-07-15T02:19:51;94822.63;;;16.13;100.00
22047;BME280;11187;49.412;20.956;2022-07-15T02:22:45;94838.97;;;16.14;100.00
22047;BME280;11187;49.412;20.956;2022-07-15T02:25:39;94851.81;;;16.15;100.00
22047;BME280;11187;49.412;20.956;2022-07-15T02:28:12;94843.25;;;16.15;100.00
22047;BME280;11187;49.412;20.956;2022-07-15T02:31:06;94846.78;;;16.12;100.00
22047;BME280;11187;49.412;20.956;2022-07-15T02:34:00;94850.22;;;16.13;100.00
22047;BME280;11187;49.412;20.956;2022-07-15T02:36:54;94845.16;;;16.10;100.00
22047;BME280;11187;49.412;20.956;2022-07-15T02:39:27;94847.69;;;16.11;100.00
22047;BME280;11187;49.412;20.956;2022-07-15T02:42:14;94848.66;;;16.08;100.00
22047;BME280;11187;49.412;20.956;2022-07-15T02:44:47;94851.31;;;16.07;100.00
22047;BME280;11187;49.412;20.956;2022-07-15T02:47:34;94857.25;;;16.09;100.00
22047;BME280;11187;49.412;20.956;2022-07-15T02:50:28;94852.09;;;16.09;100.00
22047;BME280;11187;49.412;20.956;2022-07-15T02:53:22;94850.41;;;16.08;100.00
22047;BME280;11187;49.412;20.956;2022-07-15T02:56:02;94861.56;;;16.08;100.00
22047;BME280;11187;49.412;20.956;2022-07-15T02:58:56;94854.59;;;16.11;100.00
22047;BME280;11187;49.412;20.956;2022-07-15T03:01:50;94864.94;;;16.11;100.00
22047;BME280;11187;49.412;20.956;2022-07-15T03:04:23;94859.88;;;16.07;100.00
22047;BME280;11187;49.412;20.956;2022-07-15T03:07:10;94859.88;;;16.07;100.00
22047;BME280;11187;49.412;20.956;2022-07-15T03:09:43;94856.53;;;16.05;100.00
22047;BME280;11187;49.412;20.956;2022-07-15T03:12:30;94866.03;;;16.05;100.00
22047;BME280;11187;49.412;20.956;2022-07-15T03:15:04;94868.59;;;16.05;100.00
22047;BME280;11187;49.412;20.956;2022-07-15T03:17:54;94861.69;;;16.05;100.00
22047;BME280;11187;49.412;20.956;2022-07-15T03:20:30;94869.38;;;16.07;100.00
22047;BME280;11187;49.412;20.956;2022-07-15T03:23:17;94865.97;;;16.06;100.00
22047;BME280;11187;49.412;20.956;2022-07-15T03:25:50;94868.59;;;16.05;100.00
22047;BME280;11187;49.412;20.956;2022-07-15T03:28:37;94865.19;;;16.04;100.00
22047;BME280;11187;49.412;20.956;2022-07-15T03:31:10;94857.44;;;16.04;100.00
22047;BME280;11187;49.412;20.956;2022-07-15T03:33:58;94861.84;;;16.02;100.00
22047;BME280;11187;49.412;20.956;2022-07-15T03:36:31;94864.41;;;16.02;100.00
22047;BME280;11187;49.412;20.956;2022-07-15T03:39:18;94858.44;;;16.02;100.00
22047;BME280;11187;49.412;20.956;2022-07-15T03:41:51;94870.50;;;16.01;100.00
22047;BME280;11187;49.412;20.956;2022-07-15T03:44:38;94881.66;;;16.02;100.00
22047;BME280;11187;49.412;20.956;2022-07-15T03:47:11;94880.75;;;16.03;100.00
22047;BME280;11187;49.412;20.956;2022-07-15T03:49:58;94882.56;;;16.01;100.00
22047;BME280;11187;49.412;20.956;2022-07-15T03:52:31;94873.88;;;16.03;100.00
22047;BME280;11187;49.412;20.956;2022-07-15T03:55:25;94892.81;;;16.02;100.00
22047;BME280;11187;49.412;20.956;2022-07-15T03:57:58;94887.59;;;16.04;100.00
22047;BME280;11187;49.412;20.956;2022-07-15T04:00:45;94899.69;;;16.03;100.00
22047;BME280;11187;49.412;20.956;2022-07-15T04:03:18;94878.88;;;16.06;100.00
22047;BME280;11187;49.412;20.956;2022-07-15T04:06:05;94885.59;;;16.11;100.00
22047;BME280;11187;49.412;20.956;2022-07-15T04:08:38;94882.19;;;16.10;100.00
22047;BME280;11187;49.412;20.956;2022-07-15T04:11:32;94894.19;;;16.11;100.00
22047;BME280;11187;49.412;20.956;2022-07-15T04:14:29;94898.38;;;16.14;100.00
22047;BME280;11187;49.412;20.956;2022-07-15T04:17:02;94897.47;;;16.15;100.00
22047;BME280;11187;49.412;20.956;2022-07-15T04:19:49;94909.47;;;16.16;100.00
22047;BME280;11187;49.412;20.956;2022-07-15T04:22:22;94907.72;;;16.16;100.00
22047;BME280;11187;49.412;20.956;2022-07-15T04:25:10;94903.31;;;16.18;100.00
22047;BME280;11187;49.412;20.956;2022-07-15T04:27:46;94913.59;;;16.20;100.00
22047;BME280;11187;49.412;20.956;2022-07-15T04:30:33;94911.84;;;16.20;100.00
22047;BME280;11187;49.412;20.956;2022-07-15T04:33:06;94913.50;;;16.21;100.00
22047;BME280;11187;49.412;20.956;2022-07-15T04:35:53;94916.97;;;16.22;100.00
22047;BME280;11187;49.412;20.956;2022-07-15T04:38:27;94927.22;;;16.23;100.00
22047;BME280;11187;49.412;20.956;2022-07-15T04:41:15;94922.91;;;16.24;100.00
22047;BME280;11187;49.412;20.956;2022-07-15T04:43:48;94929.78;;;16.23;100.00
22047;BME280;11187;49.412;20.956;2022-07-15T04:46:43;94930.56;;;16.25;100.00
22047;BME280;11187;49.412;20.956;2022-07-15T04:49:16;94943.38;;;16.28;100.00
22047;BME280;11187;49.412;20.956;2022-07-15T04:52:21;94930.38;;;16.30;100.00
22047;BME280;11187;49.412;20.956;2022-07-15T04:54:54;94934.50;;;16.34;100.00
22047;BME280;11187;49.412;20.956;2022-07-15T04:57:43;94939.59;;;16.36;100.00
22047;BME280;11187;49.412;20.956;2022-07-15T05:00:16;94940.38;;;16.38;100.00
22047;BME280;11187;49.412;20.956;2022-07-15T05:03:03;94939.41;;;16.40;100.00
22047;BME280;11187;49.412;20.956;2022-07-15T05:05:38;94936.69;;;16.43;100.00
22047;BME280;11187;49.412;20.956;2022-07-15T05:08:32;94939.13;;;16.46;100.00
22047;BME280;11187;49.412;20.956;2022-07-15T05:11:26;94943.25;;;16.50;100.00
22047;BME280;11187;49.412;20.956;2022-07-15T05:13:59;94936.25;;;16.53;100.00
22047;BME280;11187;49.412;20.956;2022-07-15T05:16:53;94931.09;;;16.53;100.00
22047;BME280;11187;49.412;20.956;2022-07-15T05:19:47;94938.78;;;16.54;100.00
22047;BME280;11187;49.412;20.956;2022-07-15T05:22:41;94949.91;;;16.56;100.00
22047;BME280;11187;49.412;20.956;2022-07-15T05:25:15;94946.34;;;16.59;100.00
22047;BME280;11187;49.412;20.956;2022-07-15T05:28:08;94947.16;;;16.59;100.00
22047;BME280;11187;49.412;20.956;2022-07-15T05:31:02;94954.88;;;16.61;100.00
22047;BME280;11187;49.412;20.956;2022-07-15T05:33:36;94965.97;;;16.63;100.00
22047;BME280;11187;49.412;20.956;2022-07-15T05:36:22;94962.41;;;16.65;100.00
22047;BME280;11187;49.412;20.956;2022-07-15T05:38:55;94964.94;;;16.67;100.00
22047;BME280;11187;49.412;20.956;2022-07-15T05:41:49;94962.25;;;16.68;100.00
22047;BME280;11187;49.412;20.956;2022-07-15T05:44:45;94976.88;;;16.69;100.00
22047;BME280;11187;49.412;20.956;2022-07-15T05:47:18;94982.88;;;16.70;100.00
22047;BME280;11187;49.412;20.956;2022-07-15T05:50:12;94988.06;;;16.70;100.00
22047;BME280;11187;49.412;20.956;2022-07-15T05:53:06;94994.00;;;16.72;100.00
22047;BME280;11187;49.412;20.956;2022-07-15T05:56:00;94999.09;;;16.74;100.00
22047;BME280;11187;49.412;20.956;2022-07-15T05:58:34;95005.03;;;16.76;100.00
22047;BME280;11187;49.412;20.956;2022-07-15T06:01:28;95000.63;;;16.78;100.00
22047;BME280;11187;49.412;20.956;2022-07-15T06:04:22;95008.31;;;16.81;100.00
22047;BME280;11187;49.412;20.956;2022-07-15T06:07:16;95012.50;;;16.83;100.00
22047;BME280;11187;49.412;20.956;2022-07-15T06:09:49;95020.16;;;16.85;100.00
22047;BME280;11187;49.412;20.956;2022-07-15T06:12:43;95019.22;;;16.87;100.00
22047;BME280;11187;49.412;20.956;2022-07-15T06:15:39;95020.81;;;16.90;100.00
22047;BME280;11187;49.412;20.956;2022-07-15T06:18:12;95018.09;;;16.93;100.00
22047;BME280;11187;49.412;20.956;2022-07-15T06:20:59;95026.47;;;16.98;100.00
22047;BME280;11187;49.412;20.956;2022-07-15T06:23:32;95034.16;;;17.00;100.00
22047;BME280;11187;49.412;20.956;2022-07-15T06:26:19;95032.34;;;17.02;100.00
22047;BME280;11187;49.412;20.956;2022-07-15T06:28:52;95042.28;;;17.11;100.00
22047;BME280;11187;49.412;20.956;2022-07-15T06:31:39;95040.88;;;17.23;100.00
22047;BME280;11187;49.412;20.956;2022-07-15T06:34:13;95056.69;;;17.36;100.00
22047;BME280;11187;49.412;20.956;2022-07-15T06:37:06;95057.53;;;17.36;100.00
22047;BME280;11187;49.412;20.956;2022-07-15T06:39:39;95069.63;;;17.36;100.00
22047;BME280;11187;49.412;20.956;2022-07-15T06:42:26;95070.53;;;17.35;100.00
22047;BME280;11187;49.412;20.956;2022-07-15T06:44:59;95073.97;;;17.35;100.00
22047;BME280;11187;49.412;20.956;2022-07-15T06:47:53;95083.34;;;17.38;100.00
22047;BME280;11187;49.412;20.956;2022-07-15T06:50:47;95086.91;;;17.35;100.00
22047;BME280;11187;49.412;20.956;2022-07-15T06:53:41;95091.53;;;17.28;100.00
22047;BME280;11187;49.412;20.956;2022-07-15T06:56:14;95086.56;;;17.24;100.00
22047;BME280;11187;49.412;20.956;2022-07-15T06:59:01;95095.38;;;17.20;100.00
22047;BME280;11187;49.412;20.956;2022-07-15T07:01:34;95096.25;;;17.19;100.00
22047;BME280;11187;49.412;20.956;2022-07-15T07:04:21;95089.25;;;17.21;100.00
22047;BME280;11187;49.412;20.956;2022-07-15T07:06:55;95093.59;;;17.20;100.00
22047;BME280;11187;49.412;20.956;2022-07-15T07:09:48;95107.16;;;17.25;100.00
22047;BME280;11187;49.412;20.956;2022-07-15T07:12:21;95107.06;;;17.28;100.00
22047;BME280;11187;49.412;20.956;2022-07-15T07:15:08;95099.09;;;17.33;100.00
22047;BME280;11187;49.412;20.956;2022-07-15T07:17:42;95105.56;;;17.42;100.00
22047;BME280;11187;49.412;20.956;2022-07-15T07:20:29;95108.28;;;17.58;100.00
22047;BME280;11187;49.412;20.956;2022-07-15T07:23:02;95111.22;;;17.69;100.00
22047;BME280;11187;49.412;20.956;2022-07-15T07:25:49;95102.72;;;17.86;100.00
22047;BME280;11187;49.412;20.956;2022-07-15T07:28:22;95107.31;;;17.98;99.53
22047;BME280;11187;49.412;20.956;2022-07-15T07:31:11;95114.63;;;18.07;98.69
22047;BME280;11187;49.412;20.956;2022-07-15T07:33:45;95118.63;;;18.14;97.69
22047;BME280;11187;49.412;20.956;2022-07-15T07:36:32;95118.19;;;18.24;95.94
22047;BME280;11187;49.412;20.956;2022-07-15T07:39:05;95132.28;;;18.18;96.69
22047;BME280;11187;49.412;20.956;2022-07-15T07:41:52;95140.28;;;18.13;96.64
22047;BME280;11187;49.412;20.956;2022-07-15T07:44:26;95137.19;;;18.05;96.54
22047;BME280;11187;49.412;20.956;2022-07-15T07:47:13;95147.31;;;17.92;95.44
22047;BME280;11187;49.412;20.956;2022-07-15T07:49:46;95145.06;;;17.85;96.16
22047;BME280;11187;49.412;20.956;2022-07-15T07:52:40;95150.31;;;17.83;95.83
22047;BME280;11187;49.412;20.956;2022-07-15T07:55:14;95149.28;;;17.87;94.29
22047;BME280;11187;49.412;20.956;2022-07-15T07:58:01;95152.44;;;17.94;93.96
22047;BME280;11187;49.412;20.956;2022-07-15T08:00:35;95166.78;;;18.01;94.12
22047;BME280;11187;49.412;20.956;2022-07-15T08:03:29;95176.81;;;18.07;92.57
22047;BME280;11187;49.412;20.956;2022-07-15T08:06:03;95161.16;;;18.10;91.86
22047;BME280;11187;49.412;20.956;2022-07-15T08:08:56;95162.81;;;18.11;91.81
22047;BME280;11187;49.412;20.956;2022-07-15T08:11:29;95156.53;;;18.17;92.26
22047;BME280;11187;49.412;20.956;2022-07-15T08:14:16;95165.69;;;18.24;92.56
22047;BME280;11187;49.412;20.956;2022-07-15T08:16:51;95170.56;;;18.30;92.13
22047;BME280;11187;49.412;20.956;2022-07-15T08:19:45;95180.78;;;18.33;91.42
22047;BME280;11187;49.412;20.956;2022-07-15T08:22:19;95174.44;;;18.39;89.81
22047;BME280;11187;49.412;20.956;2022-07-15T08:25:13;95172.50;;;18.44;89.20
22047;BME280;11187;49.412;20.956;2022-07-15T08:28:07;95173.66;;;18.56;87.23
22047;BME280;11187;49.412;20.956;2022-07-15T08:30:41;95181.97;;;18.63;88.25
22047;BME280;11187;49.412;20.956;2022-07-15T08:33:35;95184.41;;;18.66;88.54
22047;BME280;11187;49.412;20.956;2022-07-15T08:36:29;95192.72;;;18.72;88.79
22047;BME280;11187;49.412;20.956;2022-07-15T08:39:23;95189.66;;;18.83;88.42
22047;BME280;11187;49.412;20.956;2022-07-15T08:42:18;95202.75;;;18.97;88.00
22047;BME280;11187;49.412;20.956;2022-07-15T08:45:14;95191.38;;;19.00;84.40
22047;BME280;11187;49.412;20.956;2022-07-15T08:48:08;95196.28;;;19.06;84.47
22047;BME280;11187;49.412;20.956;2022-07-15T08:51:05;95195.44;;;19.06;84.02
22047;BME280;11187;49.412;20.956;2022-07-15T08:53:59;95193.50;;;19.09;83.38
22047;BME280;11187;49.412;20.956;2022-07-15T08:56:33;95188.78;;;19.17;83.58
22047;BME280;11187;49.412;20.956;2022-07-15T08:59:29;95194.50;;;19.24;83.07
22047;BME280;11187;49.412;20.956;2022-07-15T09:02:23;95196.63;;;19.33;82.79
22047;BME280;11187;49.412;20.956;2022-07-15T09:08:08;95202.09;;;19.45;81.20
22047;BME280;11187;49.412;20.956;2022-07-15T09:13:39;95206.06;;;19.34;81.27
22047;BME280;11187;49.412;20.956;2022-07-15T09:16:17;95206.47;;;19.27;82.59
22047;BME280;11187;49.412;20.956;2022-07-15T09:19:05;95207.31;;;19.27;83.13
22047;BME280;11187;49.412;20.956;2022-07-15T09:21:41;95207.06;;;19.49;81.60
22047;BME280;11187;49.412;20.956;2022-07-15T09:24:29;95206.50;;;19.60;81.25
22047;BME280;11187;49.412;20.956;2022-07-15T09:27:30;95205.94;;;19.71;79.83
22047;BME280;11187;49.412;20.956;2022-07-15T09:36:24;95221.09;;;19.45;80.72
22047;BME280;11187;49.412;20.956;2022-07-15T09:39:19;95217.56;;;19.30;80.51
22047;BME280;11187;49.412;20.956;2022-07-15T09:41:53;95207.53;;;19.23;80.26
22047;BME280;11187;49.412;20.956;2022-07-15T09:44:46;95205.25;;;19.16;80.82
22047;BME280;11187;49.412;20.956;2022-07-15T09:47:43;95200.75;;;19.20;80.68
22047;BME280;11187;49.412;20.956;2022-07-15T09:50:40;95198.63;;;19.28;80.15
22047;BME280;11187;49.412;20.956;2022-07-15T09:53:36;95209.44;;;19.36;79.38
22047;BME280;11187;49.412;20.956;2022-07-15T09:56:30;95218.00;;;19.38;79.15
22047;BME280;11187;49.412;20.956;2022-07-15T09:59:04;95208.28;;;19.42;78.73
22047;BME280;11187;49.412;20.956;2022-07-15T10:01:50;95208.81;;;19.49;78.96
22047;BME280;11187;49.412;20.956;2022-07-15T10:04:26;95216.38;;;19.53;78.22
22047;BME280;11187;49.412;20.956;2022-07-15T10:07:20;95208.56;;;19.53;78.02
22047;BME280;11187;49.412;20.956;2022-07-15T10:10:16;95200.69;;;19.55;76.94
22047;BME280;11187;49.412;20.956;2022-07-15T10:22:56;95201.69;;;19.70;75.37
22047;BME280;11187;49.412;20.956;2022-07-15T10:29:03;95213.84;;;19.69;72.07
22047;BME280;11187;49.412;20.956;2022-07-15T10:31:38;95212.06;;;19.70;73.56
22047;BME280;11187;49.412;20.956;2022-07-15T10:34:34;95206.47;;;19.77;71.65
22047;BME280;11187;49.412;20.956;2022-07-15T10:37:28;95207.53;;;19.73;73.48
22047;BME280;11187;49.412;20.956;2022-07-15T10:40:22;95204.31;;;19.68;73.92
22047;BME280;11187;49.412;20.956;2022-07-15T10:43:16;95199.13;;;19.68;74.46
22047;BME280;11187;49.412;20.956;2022-07-15T10:51:51;95211.84;;;19.74;73.52
22047;BME280;11187;49.412;20.956;2022-07-15T11:00:32;95216.34;;;19.71;73.75
22047;BME280;11187;49.412;20.956;2022-07-15T11:03:11;95216.53;;;19.84;74.16
22047;BME280;11187;49.412;20.956;2022-07-15T11:06:06;95214.97;;;19.97;73.12
22047;BME280;11187;49.412;20.956;2022-07-15T11:09:00;95218.97;;;20.02;72.80
22047;BME280;11187;49.412;20.956;2022-07-15T11:14:49;95222.25;;;19.90;74.20
22047;BME280;11187;49.412;20.956;2022-07-15T11:20:25;95214.72;;;20.01;73.16
22047;BME280;11187;49.412;20.956;2022-07-15T11:23:00;95211.44;;;20.14;72.41
22047;BME280;11187;49.412;20.956;2022-07-15T11:25:48;95207.09;;;20.14;70.39
22047;BME280;11187;49.412;20.956;2022-07-15T11:28:22;95208.84;;;20.14;72.76
22047;BME280;11187;49.412;20.956;2022-07-15T11:31:08;95204.91;;;20.22;72.88
22047;BME280;11187;49.412;20.956;2022-07-15T11:33:42;95204.47;;;20.30;73.55
22047;BME280;11187;49.412;20.956;2022-07-15T11:36:36;95212.13;;;20.33;73.11
22047;BME280;11187;49.412;20.956;2022-07-15T11:39:10;95211.38;;;20.31;72.80
22047;BME280;11187;49.412;20.956;2022-07-15T11:41:57;95213.28;;;20.28;72.69
22047;BME280;11187;49.412;20.956;2022-07-15T11:44:50;95215.97;;;20.26;71.35
22047;BME280;11187;49.412;20.956;2022-07-15T11:47:50;95213.03;;;20.16;70.77
22047;BME280;11187;49.412;20.956;2022-07-15T11:50:27;95207.00;;;20.16;72.33
22047;BME280;11187;49.412;20.956;2022-07-15T11:53:21;95190.66;;;20.14;71.49
22047;BME280;11187;49.412;20.956;2022-07-15T11:56:15;95191.50;;;20.14;72.15
22047;BME280;11187;49.412;20.956;2022-07-15T11:59:09;95199.44;;;20.11;71.15
22047;BME280;11187;49.412;20.956;2022-07-15T12:02:06;95199.53;;;20.10;70.63
22047;BME280;11187;49.412;20.956;2022-07-15T12:04:41;95195.19;;;20.10;71.35
22047;BME280;11187;49.412;20.956;2022-07-15T12:07:42;95189.06;;;20.11;71.46
22047;BME280;11187;49.412;20.956;2022-07-15T12:10:16;95189.22;;;20.08;70.60
22047;BME280;11187;49.412;20.956;2022-07-15T12:13:10;95197.88;;;20.09;69.82
22047;BME280;11187;49.412;20.956;2022-07-15T12:16:04;95191.91;;;20.07;70.23
22047;BME280;11187;49.412;20.956;2022-07-15T12:18:41;95206.75;;;20.05;70.88
22047;BME280;11187;49.412;20.956;2022-07-15T12:21:28;95202.56;;;20.02;69.97
22047;BME280;11187;49.412;20.956;2022-07-15T12:24:05;95201.97;;;19.97;69.41
22047;BME280;11187;49.412;20.956;2022-07-15T12:26:59;95209.91;;;19.94;68.50
22047;BME280;11187;49.412;20.956;2022-07-15T12:30:00;95187.47;;;19.93;68.73
22047;BME280;11187;49.412;20.956;2022-07-15T12:32:36;95189.06;;;19.95;68.14
22047;BME280;11187;49.412;20.956;2022-07-15T12:35:23;95184.44;;;20.00;67.04
22047;BME280;11187;49.412;20.956;2022-07-15T12:37:57;95187.91;;;20.01;67.61
22047;BME280;11187;49.412;20.956;2022-07-15T12:40:50;95190.31;;;20.04;68.54
22047;BME280;11187;49.412;20.956;2022-07-15T12:43:48;95191.91;;;20.07;65.71
22047;BME280;11187;49.412;20.956;2022-07-15T12:52:35;95208.25;;;19.93;69.57
22047;BME280;11187;49.412;20.956;2022-07-15T12:58:12;95191.31;;;19.86;67.13
22047;BME280;11187;49.412;20.956;2022-07-15T13:00:46;95193.91;;;19.86;68.08
22047;BME280;11187;49.412;20.956;2022-07-15T13:03:32;95202.78;;;19.81;66.47
22047;BME280;11187;49.412;20.956;2022-07-15T13:06:06;95194.22;;;19.79;67.27
22047;BME280;11187;49.412;20.956;2022-07-15T13:09:00;95196.00;;;19.79;67.43
22047;BME280;11187;49.412;20.956;2022-07-15T13:11:58;95197.84;;;19.77;69.19
22047;BME280;11187;49.412;20.956;2022-07-15T13:14:33;95198.59;;;19.79;69.07
22047;BME280;11187;49.412;20.956;2022-07-15T13:17:19;95199.59;;;19.76;68.25
22047;BME280;11187;49.412;20.956;2022-07-15T13:19:53;95201.13;;;19.80;67.86
22047;BME280;11187;49.412;20.956;2022-07-15T13:22:40;95215.78;;;19.81;67.96
22047;BME280;11187;49.412;20.956;2022-07-15T13:25:14;95215.72;;;19.83;68.73
22047;BME280;11187;49.412;20.956;2022-07-15T13:28:00;95214.19;;;19.79;68.38
22047;BME280;11187;49.412;20.956;2022-07-15T13:30:35;95219.56;;;19.76;68.65
22047;BME280;11187;49.412;20.956;2022-07-15T13:33:28;95226.81;;;19.69;67.08
22047;BME280;11187;49.412;20.956;2022-07-15T13:36:33;95219.25;;;19.65;67.62
22047;BME280;11187;49.412;20.956;2022-07-15T13:39:27;95218.63;;;19.59;67.16
22047;BME280;11187;49.412;20.956;2022-07-15T13:42:21;95224.81;;;19.57;67.64
22047;BME280;11187;49.412;20.956;2022-07-15T13:44:57;95230.19;;;19.54;67.85
22047;BME280;11187;49.412;20.956;2022-07-15T13:47:43;95227.59;;;19.54;67.45
22047;BME280;11187;49.412;20.956;2022-07-15T13:50:17;95228.50;;;19.53;67.05
22047;BME280;11187;49.412;20.956;2022-07-15T13:53:22;95224.28;;;19.50;67.92
22047;BME280;11187;49.412;20.956;2022-07-15T13:55:58;95225.31;;;19.48;67.60
22047;BME280;11187;49.412;20.956;2022-07-15T13:58:47;95226.31;;;19.45;68.72
22047;BME280;11187;49.412;20.956;2022-07-15T14:01:21;95218.50;;;19.45;68.50
22047;BME280;11187;49.412;20.956;2022-07-15T14:04:07;95222.03;;;19.44;68.16
22047;BME280;11187;49.412;20.956;2022-07-15T14:06:41;95228.91;;;19.45;68.15
22047;BME280;11187;49.412;20.956;2022-07-15T14:09:27;95225.59;;;19.41;69.27
22047;BME280;11187;49.412;20.956;2022-07-15T14:12:03;95223.13;;;19.40;68.24
22047;BME280;11187;49.412;20.956;2022-07-15T14:14:57;95213.72;;;19.37;67.81
22047;BME280;11187;49.412;20.956;2022-07-15T14:17:55;95221.59;;;19.36;68.07
22047;BME280;11187;49.412;20.956;2022-07-15T14:20:49;95222.50;;;19.35;66.84
22047;BME280;11187;49.412;20.956;2022-07-15T14:23:23;95221.75;;;19.33;68.51
22047;BME280;11187;49.412;20.956;2022-07-15T14:26:10;95224.59;;;19.28;68.05
22047;BME280;11187;49.412;20.956;2022-07-15T14:28:45;95220.28;;;19.27;68.41
22047;BME280;11187;49.412;20.956;2022-07-15T14:31:32;95221.34;;;19.23;66.64
22047;BME280;11187;49.412;20.956;2022-07-15T14:34:06;95227.53;;;19.20;68.08
22047;BME280;11187;49.412;20.956;2022-07-15T14:36:59;95217.09;;;19.22;67.91
22047;BME280;11187;49.412;20.956;2022-07-15T14:40:13;95217.16;;;19.20;67.65
22047;BME280;11187;49.412;20.956;2022-07-15T14:43:07;95213.75;;;19.20;69.19
22047;BME280;11187;49.412;20.956;2022-07-15T14:46:01;95221.59;;;19.18;68.74
22047;BME280;11187;49.412;20.956;2022-07-15T14:48:35;95226.78;;;19.18;68.37
22047;BME280;11187;49.412;20.956;2022-07-15T14:51:21;95220.81;;;19.16;67.65
22047;BME280;11187;49.412;20.956;2022-07-15T14:53:55;95220.09;;;19.14;68.06
22047;BME280;11187;49.412;20.956;2022-07-15T14:56:48;95216.63;;;19.14;67.77
22047;BME280;11187;49.412;20.956;2022-07-15T14:59:22;95216.63;;;19.14;67.81
22047;BME280;11187;49.412;20.956;2022-07-15T15:02:09;95214.19;;;19.11;68.56
22047;BME280;11187;49.412;20.956;2022-07-15T15:04:42;95216.72;;;19.12;67.99
22047;BME280;11187;49.412;20.956;2022-07-15T15:07:29;95213.28;;;19.12;68.27
22047;BME280;11187;49.412;20.956;2022-07-15T15:10:03;95214.19;;;19.11;68.22